LiveATC.Net - Listen to live air traffic control over the Internet! Contact LiveATC.net for advertising information


ICAO: KFHR  IATA: FHR   Airport: Friday Harbor Airport
City: Friday Harbor   State/Province: Washington
Country: United States   Continent: North America
KFHR METAR Weather: KFHR 220353Z AUTO 23008G16KT 10SM CLR 11/07 A3004 RMK AO2 SLP172 T01060072
KFHR Flight Activity (FlightAware)
KFHR Airport Info   (AirNav) (iFlightPlanner)
KFHR CTAF
Feed Status: DOWN
Last heard on: 2014-12-08 08:06:03 (13 days 20 hours 53 minutes ago)
KFHR CTAF Audio Archives
FacilityFrequency
KFHR/San Juan Islands CTAF128.250


NOTICE

Unauthorized use prohibited. See LiveATC.net Terms of Service


Find LiveATC Audio Streams


Airport/ARTCC Code

Frequency
(e.g., 124.400, 128.75)
Site-wide search

Browse LiveATC Feeds
LiveATC Coverage Map
Top 50 LiveATC Feeds
Bad Weather Areas

LiveATC FAQ
Offer a LiveATC Feed
Contact LiveATC.net
Press Inquiries

LiveATC on iPhone
LiveATC on Android

LiveATC Mobile
(Mobile browser)

ATC Audio Archives
Interesting Recordings

LiveATC Forums


Home Page
About LiveATC.net
Make a Donation
LiveATC Bookstore

Terms of Use
Privacy Policy

ATC/Radar Sites
U.S. ARTCC Freqs
Canadian Air Freqs

AIRMETs/SIGMETs

FAA Airport Status
Nat'l Airspace Status
Arrival Demand Charts


Server Software By:
Icecast.org
Liquidsoap

Please make a donation to help us keep growing!